Time;durP1;ratioP1;P1;durP2;ratioP2;P2;SDS_P1;SDS_P2;PMS_P1;PMS_P2;Temp;Humidity;BMP_temperature;BMP_pressure;BME280_temperature;BME280_humidity;BME280_pressure;Samples;Min_cycle;Max_cycle;Signal;HPM_P1;HPM_P2
2022/09/29 00:00:52;;;;;;;14.13;12.60;;;18.20;99.90;;;;;;4589276;19;20014;-37
2022/09/29 00:02:38;;;;;;;11.30;8.70;;;18.20;99.90;;;;;;4589203;19;20364;-38
2022/09/29 00:04:10;;;;;;;8.88;7.38;;;18.20;99.90;;;;;;4589765;19;20018;-33
2022/09/29 00:05:45;;;;;;;;;;;18.20;99.90;;;;;;4589173;19;20015;-33
2022/09/29 00:07:16;;;;;;;8.35;6.90;;;18.20;99.90;;;;;;4588947;19;19921;-37
2022/09/29 00:08:48;;;;;;;10.18;7.88;;;18.20;99.90;;;;;;4588205;19;20018;-33
2022/09/29 00:10:19;;;;;;;8.98;7.40;;;18.20;99.90;;;;;;4587281;19;20054;-37
2022/09/29 00:11:54;;;;;;;7.85;6.50;;;18.10;99.90;;;;;;4588927;19;20043;-34
2022/09/29 00:13:25;;;;;;;7.32;6.40;;;18.10;99.90;;;;;;4587935;19;20007;-37
2022/09/29 00:14:56;;;;;;;6.90;6.15;;;18.10;99.90;;;;;;4588874;19;20014;-33
2022/09/29 00:16:28;;;;;;;7.40;6.20;;;18.20;99.90;;;;;;4589112;19;20019;-33
2022/09/29 00:17:59;;;;;;;;;;;18.10;99.90;;;;;;4592973;19;20022;-35
2022/09/29 00:19:32;;;;;;;10.18;6.97;;;18.10;99.90;;;;;;4593654;19;19921;-38
2022/09/29 00:21:12;;;;;;;11.48;7.60;;;18.10;99.90;;;;;;4593593;19;20498;-36
2022/09/29 00:22:43;;;;;;;7.93;6.53;;;18.10;99.90;;;;;;4594329;19;20014;-38
2022/09/29 00:24:14;;;;;;;9.68;6.45;;;18.10;99.90;;;;;;4594438;19;20011;-35
2022/09/29 00:25:45;;;;;;;8.88;6.40;;;18.10;99.90;;;;;;4593644;19;20014;-36
2022/09/29 00:27:17;;;;;;;7.13;5.65;;;18.10;99.90;;;;;;4593574;19;20023;-36
2022/09/29 00:28:51;;;;;;;;;;;18.10;99.90;;;;;;4593684;19;20011;-36
2022/09/29 00:30:23;;;;;;;8.18;6.50;;;18.10;99.90;;;;;;4592991;19;19966;-34
2022/09/29 00:31:54;;;;;;;10.20;6.25;;;18.10;99.90;;;;;;4593474;19;20015;-36
2022/09/29 00:33:27;;;;;;;7.05;6.10;;;18.10;99.90;;;;;;4592562;19;20032;-34
2022/09/29 00:34:59;;;;;;;9.48;6.05;;;18.10;99.90;;;;;;4593318;19;20014;-37
2022/09/29 00:36:30;;;;;;;10.80;7.13;;;18.10;99.90;;;;;;4593593;19;20096;-34
2022/09/29 00:38:01;;;;;;;11.02;7.22;;;18.10;99.90;;;;;;4592066;19;20018;-37
2022/09/29 00:39:33;;;;;;;19.70;9.55;;;18.10;99.90;;;;;;4593349;19;20018;-34
2022/09/29 00:41:04;;;;;;;17.33;10.02;;;18.10;99.90;;;;;;4592962;19;20014;-37
2022/09/29 00:42:36;;;;;;;15.32;9.23;;;18.10;99.90;;;;;;4593042;19;20017;-35
2022/09/29 00:44:13;;;;;;;7.88;6.40;;;18.10;99.90;;;;;;4591976;19;20528;-35
2022/09/29 00:45:44;;;;;;;10.80;6.97;;;18.10;99.90;;;;;;4592907;19;20007;-35
2022/09/29 00:47:15;;;;;;;11.18;8.50;;;18.10;99.90;;;;;;4592082;19;20491;-36
2022/09/29 00:48:47;;;;;;;8.63;7.18;;;18.10;99.90;;;;;;4591858;19;20014;-40
2022/09/29 00:50:50;;;;;;;9.77;7.13;;;18.10;99.90;;;;;;4592171;19;20463;-38
2022/09/29 00:52:23;;;;;;;8.77;7.00;;;18.10;99.90;;;;;;4590490;19;20110;-34
2022/09/29 00:53:54;;;;;;;9.57;7.72;;;18.10;99.90;;;;;;4590833;19;20020;-34
2022/09/29 00:55:32;;;;;;;13.88;8.82;;;18.10;99.90;;;;;;4590826;19;20014;-34
2022/09/29 00:57:03;;;;;;;11.88;9.32;;;18.10;99.90;;;;;;4590452;19;20524;-36
2022/09/29 00:58:44;;;;;;;10.23;8.65;;;18.00;99.90;;;;;;4590849;19;20019;-35
2022/09/29 01:00:15;;;;;;;10.73;8.32;;;18.10;99.90;;;;;;4590450;19;20019;-36
2022/09/29 01:01:46;;;;;;;10.60;7.55;;;18.10;99.90;;;;;;4591030;19;20014;-33
2022/09/29 01:03:19;;;;;;;9.32;7.50;;;18.00;99.90;;;;;;4590446;19;20554;-36
2022/09/29 01:04:51;;;;;;;9.45;7.28;;;18.00;99.90;;;;;;4590374;19;20377;-34
2022/09/29 01:06:28;;;;;;;10.25;7.60;;;18.10;99.90;;;;;;4590786;19;20086;-32
2022/09/29 01:08:02;;;;;;;8.80;7.32;;;18.10;99.90;;;;;;4590825;19;20130;-35
2022/09/29 01:09:36;;;;;;;9.13;7.03;;;18.10;99.90;;;;;;4589880;19;20015;-33
2022/09/29 01:11:08;;;;;;;10.18;6.57;;;18.10;99.90;;;;;;4589635;19;20022;-39
2022/09/29 01:12:39;;;;;;;7.78;6.57;;;18.10;99.90;;;;;;4590637;19;20034;-35
2022/09/29 01:14:11;;;;;;;9.88;7.18;;;18.10;99.90;;;;;;4591013;19;20014;-34
2022/09/29 01:15:42;;;;;;;9.32;6.65;;;18.10;99.90;;;;;;4590250;19;20425;-32
2022/09/29 01:17:13;;;;;;;8.32;6.65;;;18.10;99.90;;;;;;4590412;19;20014;-38
2022/09/29 01:18:44;;;;;;;8.43;6.57;;;18.10;99.90;;;;;;4590670;19;20006;-35
2022/09/29 01:20:17;;;;;;;7.63;6.72;;;18.00;99.90;;;;;;4590371;19;20018;-36
2022/09/29 01:21:58;;;;;;;10.20;7.80;;;18.10;99.90;;;;;;4589990;19;20014;-35
2022/09/29 01:23:48;;;;;;;9.65;8.35;;;18.00;99.90;;;;;;4590099;19;20355;-36
2022/09/29 01:25:58;;;;;;;11.77;7.82;;;18.10;99.90;;;;;;4590003;19;20465;-37
2022/09/29 01:27:35;;;;;;;9.35;7.32;;;18.00;99.90;;;;;;4590283;19;20103;-35
2022/09/29 01:29:45;;;;;;;12.80;7.63;;;18.10;99.90;;;;;;4590926;19;20039;-35
2022/09/29 01:31:30;;;;;;;8.85;6.25;;;18.10;99.90;;;;;;4588715;19;20014;-34
2022/09/29 01:33:11;;;;;;;10.18;6.90;;;18.10;99.90;;;;;;4589856;19;20487;-38
2022/09/29 01:35:08;;;;;;;8.80;6.95;;;18.00;99.90;;;;;;4589708;19;20405;-35
2022/09/29 01:36:42;;;;;;;10.18;7.05;;;18.00;99.90;;;;;;4589723;19;20030;-33
2022/09/29 01:38:28;;;;;;;8.38;6.30;;;18.00;99.90;;;;;;4589713;19;20357;-36
2022/09/29 01:40:38;;;;;;;8.85;6.97;;;18.00;99.90;;;;;;4590268;19;20010;-38
2022/09/29 01:42:26;;;;;;;10.70;7.38;;;18.00;99.90;;;;;;4588143;19;20413;-36
2022/09/29 01:44:06;;;;;;;8.65;7.03;;;18.00;99.90;;;;;;4590154;19;20053;-37
2022/09/29 01:45:43;;;;;;;10.13;7.97;;;18.00;99.90;;;;;;4589794;19;20031;-38
2022/09/29 01:47:26;;;;;;;11.50;7.20;;;18.00;99.90;;;;;;4589486;19;20014;-37
2022/09/29 01:48:57;;;;;;;10.05;6.97;;;18.00;99.90;;;;;;4589536;19;20010;-38
2022/09/29 01:50:31;;;;;;;7.40;6.30;;;18.00;99.90;;;;;;4588968;19;20022;-34
2022/09/29 01:52:07;;;;;;;7.80;6.05;;;18.00;99.90;;;;;;4588922;19;20022;-33
2022/09/29 01:53:48;;;;;;;8.10;6.68;;;18.00;99.90;;;;;;4589356;19;20489;-33
2022/09/29 01:55:21;;;;;;;7.80;6.18;;;18.00;99.90;;;;;;4589398;19;20014;-34
2022/09/29 01:56:57;;;;;;;7.10;5.93;;;18.00;99.90;;;;;;4589391;19;20018;-36
2022/09/29 01:58:38;;;;;;;11.50;7.50;;;18.00;99.90;;;;;;4589955;19;19998;-39
2022/09/29 02:00:11;;;;;;;9.00;6.65;;;18.00;99.90;;;;;;4589592;19;20027;-38
2022/09/29 02:01:42;;;;;;;9.55;6.55;;;18.00;99.90;;;;;;4588887;19;20056;-34
2022/09/29 02:03:29;;;;;;;9.95;7.47;;;18.00;99.90;;;;;;4589254;19;20006;-32
2022/09/29 02:05:02;;;;;;;11.25;7.57;;;18.00;99.90;;;;;;4589224;19;20029;-38
2022/09/29 02:06:39;;;;;;;11.35;7.72;;;18.00;99.90;;;;;;4589891;19;19995;-33
2022/09/29 02:08:15;;;;;;;9.93;8.20;;;18.00;99.90;;;;;;4589594;19;20027;-35
2022/09/29 02:09:48;;;;;;;12.15;7.47;;;18.00;99.90;;;;;;4588547;19;20587;-36
2022/09/29 02:11:20;;;;;;;12.48;8.27;;;18.00;99.90;;;;;;4587829;19;20058;-34
2022/09/29 02:12:52;;;;;;;11.00;8.23;;;18.00;99.90;;;;;;4588869;19;20015;-37
2022/09/29 02:14:25;;;;;;;8.10;6.20;;;18.00;99.90;;;;;;4589034;19;20511;-38
2022/09/29 02:15:56;;;;;;;7.65;6.05;;;18.00;99.90;;;;;;4588790;19;20435;-37
2022/09/29 02:17:32;;;;;;;8.93;6.25;;;18.00;99.90;;;;;;4591608;19;20006;-33
2022/09/29 02:19:14;;;;;;;6.40;5.70;;;18.00;99.90;;;;;;4590217;19;20023;-32
2022/09/29 02:20:46;;;;;;;6.93;5.72;;;18.00;99.90;;;;;;4591164;19;20010;-32
2022/09/29 02:22:17;;;;;;;9.93;6.15;;;18.10;99.90;;;;;;4589818;19;20010;-33
2022/09/29 02:23:50;;;;;;;8.60;5.70;;;18.10;99.90;;;;;;4590241;19;20014;-38
2022/09/29 02:25:23;;;;;;;7.13;5.97;;;18.10;99.90;;;;;;4591264;19;20452;-35
2022/09/29 02:26:55;;;;;;;6.75;5.22;;;18.00;99.90;;;;;;4589880;19;20460;-33
2022/09/29 02:28:26;;;;;;;7.07;5.63;;;18.00;99.90;;;;;;4590647;19;20066;-33
2022/09/29 02:29:58;;;;;;;8.23;5.95;;;18.00;99.90;;;;;;4591109;19;20507;-35
2022/09/29 02:31:30;;;;;;;8.13;5.78;;;18.00;99.90;;;;;;4590981;19;20014;-33
2022/09/29 02:33:01;;;;;;;7.35;5.50;;;18.00;99.90;;;;;;4590235;19;20017;-37
2022/09/29 02:34:34;;;;;;;9.40;6.65;;;18.00;99.90;;;;;;4593338;19;20040;-36
2022/09/29 02:36:43;;;;;;;7.80;5.75;;;18.00;99.90;;;;;;4588239;19;20042;-33
2022/09/29 02:38:28;;;;;;;7.20;5.57;;;18.00;99.90;;;;;;4588144;19;20021;-35
2022/09/29 02:40:27;;;;;;;8.02;5.75;;;18.00;99.90;;;;;;4587684;19;20018;-32
2022/09/29 02:42:20;;;;;;;6.65;5.63;;;18.00;99.90;;;;;;4587670;19;20025;-37
2022/09/29 02:44:15;;;;;;;7.68;5.55;;;18.00;99.90;;;;;;4588607;19;20496;-33
2022/09/29 02:46:18;;;;;;;8.02;5.60;;;18.00;99.90;;;;;;4588331;19;20014;-34
2022/09/29 02:48:15;;;;;;;7.72;6.00;;;18.00;99.90;;;;;;4588807;19;20023;-33
2022/09/29 02:49:58;;;;;;;8.85;6.72;;;18.00;99.90;;;;;;4588542;19;20027;-38
2022/09/29 02:51:37;;;;;;;8.95;7.03;;;18.00;99.90;;;;;;4586907;19;20531;-33
2022/09/29 02:53:47;;;;;;;9.30;7.47;;;17.90;99.90;;;;;;4587938;19;20021;-37
2022/09/29 02:55:40;;;;;;;10.30;8.02;;;18.00;99.90;;;;;;4588066;19;20026;-31
2022/09/29 02:57:28;;;;;;;10.18;7.85;;;17.90;99.90;;;;;;4587589;19;20010;-33
2022/09/29 02:59:06;;;;;;;9.45;7.15;;;17.90;99.90;;;;;;4587655;19;20026;-33
2022/09/29 03:00:38;;;;;;;10.40;7.88;;;18.00;99.90;;;;;;4588330;19;20010;-37
2022/09/29 03:02:11;;;;;;;9.88;7.93;;;18.00;99.90;;;;;;4587494;19;20117;-32
2022/09/29 03:03:43;;;;;;;9.40;7.53;;;18.00;99.90;;;;;;4587519;19;20007;-35
2022/09/29 03:05:17;;;;;;;10.88;7.13;;;18.00;99.90;;;;;;4587577;19;20373;-34
2022/09/29 03:06:51;;;;;;;8.68;7.70;;;18.00;99.90;;;;;;4588017;19;19995;-32
2022/09/29 03:08:25;;;;;;;11.77;8.80;;;17.90;99.90;;;;;;4587432;19;20095;-35
2022/09/29 03:10:03;;;;;;;11.85;7.93;;;17.90;99.90;;;;;;4586770;19;20028;-32
2022/09/29 03:11:41;;;;;;;10.38;7.70;;;17.90;99.90;;;;;;4587728;19;20367;-32
2022/09/29 03:13:14;;;;;;;15.10;8.45;;;17.90;99.90;;;;;;4587947;19;20022;-32
2022/09/29 03:14:46;;;;;;;11.13;8.65;;;17.90;99.90;;;;;;4587504;19;20010;-35
2022/09/29 03:16:18;;;;;;;10.13;7.95;;;17.90;99.90;;;;;;4587442;19;20038;-38
2022/09/29 03:17:53;;;;;;;10.43;7.78;;;17.90;99.90;;;;;;4587160;19;20006;-37
2022/09/29 03:19:24;;;;;;;11.57;9.10;;;17.90;99.90;;;;;;4588160;19;20018;-34
2022/09/29 03:20:55;;;;;;;11.35;8.02;;;17.90;99.90;;;;;;4587765;19;20014;-37
2022/09/29 03:22:26;;;;;;;11.27;8.25;;;17.90;99.90;;;;;;4587280;19;20014;-38
2022/09/29 03:23:58;;;;;;;8.63;7.53;;;17.90;99.90;;;;;;4587626;19;20018;-36
2022/09/29 03:25:29;;;;;;;8.23;7.35;;;17.90;99.90;;;;;;4588178;19;20014;-39
2022/09/29 03:27:00;;;;;;;9.85;7.85;;;18.00;99.90;;;;;;4587432;19;20014;-33
2022/09/29 03:28:31;;;;;;;8.90;7.50;;;18.00;99.90;;;;;;4587276;19;20018;-34
2022/09/29 03:30:03;;;;;;;9.18;7.90;;;17.90;99.90;;;;;;4587126;19;20023;-37
2022/09/29 03:31:34;;;;;;;11.30;8.32;;;17.90;99.90;;;;;;4586723;19;20007;-35
2022/09/29 03:33:05;;;;;;;10.35;8.65;;;17.90;99.90;;;;;;4587606;19;20054;-39
2022/09/29 03:34:36;;;;;;;11.20;9.15;;;17.90;99.90;;;;;;4588481;19;20015;-35
2022/09/29 03:36:08;;;;;;;9.57;8.57;;;18.00;99.90;;;;;;4587960;19;20017;-35
2022/09/29 03:37:39;;;;;;;9.00;8.10;;;18.00;99.90;;;;;;4588091;19;20011;-34
2022/09/29 03:39:10;;;;;;;10.15;8.90;;;18.00;99.90;;;;;;4588664;19;20014;-33
2022/09/29 03:40:42;;;;;;;11.40;9.30;;;18.00;99.90;;;;;;4589841;19;20014;-32
2022/09/29 03:42:13;;;;;;;9.68;8.63;;;17.90;99.90;;;;;;4588555;19;20135;-36
2022/09/29 03:43:45;;;;;;;10.55;8.35;;;18.00;99.90;;;;;;4588906;19;20017;-39
2022/09/29 03:45:16;;;;;;;11.48;9.32;;;18.00;99.90;;;;;;4589308;19;20370;-35
2022/09/29 03:46:47;;;;;;;10.85;9.73;;;18.00;99.90;;;;;;4587936;19;20064;-34
2022/09/29 03:48:19;;;;;;;11.65;10.30;;;18.00;99.90;;;;;;4588577;19;20342;-35
2022/09/29 03:49:50;;;;;;;11.02;8.90;;;18.00;99.90;;;;;;4588113;19;20015;-35
2022/09/29 03:51:21;;;;;;;11.20;9.30;;;18.00;99.90;;;;;;4588181;19;20074;-38
2022/09/29 03:52:52;;;;;;;11.77;10.13;;;18.00;99.90;;;;;;4591698;19;20014;-37
2022/09/29 03:54:26;;;;;;;9.93;8.93;;;18.00;99.90;;;;;;4591125;19;20473;-38
2022/09/29 03:55:57;;;;;;;11.35;9.55;;;18.00;99.90;;;;;;4593485;19;20011;-42
2022/09/29 03:57:28;;;;;;;10.63;9.52;;;18.00;99.90;;;;;;4593873;19;20006;-38
2022/09/29 03:58:59;;;;;;;12.05;10.20;;;18.00;99.90;;;;;;4594315;19;20027;-38
2022/09/29 04:00:30;;;;;;;12.00;10.18;;;18.00;99.90;;;;;;4593624;19;20021;-39
2022/09/29 04:02:02;;;;;;;11.93;10.43;;;18.00;99.90;;;;;;4593618;19;20011;-40
2022/09/29 04:03:33;;;;;;;10.82;9.73;;;18.00;99.90;;;;;;4593660;19;20025;-38
2022/09/29 04:05:05;;;;;;;10.93;9.50;;;17.90;99.90;;;;;;4594192;19;20018;-38
2022/09/29 04:06:36;;;;;;;12.45;11.15;;;18.00;99.90;;;;;;4593697;19;20022;-40
2022/09/29 04:08:07;;;;;;;11.93;10.55;;;17.90;99.90;;;;;;4594020;19;20070;-37
2022/09/29 04:09:39;;;;;;;;;;;18.00;99.90;;;;;;4594320;19;20006;-38
2022/09/29 04:11:10;;;;;;;12.57;11.25;;;17.90;99.90;;;;;;4591456;19;19915;-37
2022/09/29 04:12:42;;;;;;;12.35;10.88;;;18.00;99.90;;;;;;4593456;19;20022;-37
2022/09/29 04:14:13;;;;;;;12.95;11.00;;;18.00;99.90;;;;;;4593400;19;20406;-39
2022/09/29 04:15:45;;;;;;;12.60;10.38;;;18.00;99.90;;;;;;4592434;19;20464;-39
2022/09/29 04:17:16;;;;;;;12.63;11.32;;;18.00;99.90;;;;;;4593395;19;20010;-35
2022/09/29 04:18:47;;;;;;;15.10;12.25;;;18.00;99.90;;;;;;4593502;19;20503;-39
2022/09/29 04:20:18;;;;;;;12.23;10.57;;;17.90;99.90;;;;;;4594813;19;20014;-40
2022/09/29 04:21:49;;;;;;;14.60;11.88;;;17.90;99.90;;;;;;4593895;19;20021;-40
2022/09/29 04:23:21;;;;;;;13.23;11.65;;;17.90;99.90;;;;;;4593188;19;20413;-36
2022/09/29 04:24:52;;;;;;;12.75;10.90;;;17.90;99.90;;;;;;4594142;19;20022;-41
2022/09/29 04:26:23;;;;;;;14.85;11.70;;;17.90;99.90;;;;;;4592988;19;20015;-36
2022/09/29 04:27:54;;;;;;;14.38;12.50;;;17.90;99.90;;;;;;4593769;19;20460;-40
2022/09/29 04:29:25;;;;;;;13.75;11.90;;;17.90;99.90;;;;;;4593133;19;20476;-40
2022/09/29 04:30:57;;;;;;;14.15;11.48;;;17.90;99.90;;;;;;4592331;19;20031;-39
2022/09/29 04:32:28;;;;;;;14.57;12.25;;;17.90;99.90;;;;;;4593406;19;20014;-38
2022/09/29 04:33:59;;;;;;;13.07;11.68;;;17.90;99.90;;;;;;4595111;19;20014;-40
2022/09/29 04:35:30;;;;;;;15.32;11.65;;;17.90;99.90;;;;;;4592997;19;20030;-35
2022/09/29 04:37:01;;;;;;;14.23;12.65;;;17.90;99.90;;;;;;4593490;19;20018;-35
2022/09/29 04:38:32;;;;;;;14.80;12.27;;;17.90;99.90;;;;;;4593915;19;20456;-40
2022/09/29 04:40:04;;;;;;;13.38;11.95;;;17.90;99.90;;;;;;4592919;19;20058;-41
2022/09/29 04:41:38;;;;;;;13.90;11.75;;;17.90;99.90;;;;;;4591914;19;20010;-40
2022/09/29 04:43:09;;;;;;;14.80;12.18;;;18.00;99.90;;;;;;4593428;19;20026;-38
2022/09/29 04:44:40;;;;;;;13.65;12.25;;;17.90;99.90;;;;;;4593452;19;20019;-39
2022/09/29 04:46:11;;;;;;;14.15;12.65;;;17.90;99.90;;;;;;4592799;19;20027;-35
2022/09/29 04:47:42;;;;;;;14.95;12.43;;;18.00;99.90;;;;;;4590517;19;20014;-38
2022/09/29 04:49:14;;;;;;;14.38;12.57;;;17.90;99.90;;;;;;4590567;19;20472;-35
2022/09/29 04:50:45;;;;;;;15.40;12.98;;;17.90;99.90;;;;;;4590604;19;19998;-38
2022/09/29 04:52:16;;;;;;;14.05;12.55;;;17.90;99.90;;;;;;4590511;19;20074;-40
2022/09/29 04:53:47;;;;;;;14.75;12.18;;;18.00;99.90;;;;;;4590795;19;20034;-39
2022/09/29 04:55:19;;;;;;;13.30;11.90;;;18.00;99.90;;;;;;4590805;19;20481;-40
2022/09/29 04:56:50;;;;;;;13.88;11.80;;;18.00;99.90;;;;;;4590534;19;20007;-38
2022/09/29 04:58:21;;;;;;;14.40;12.13;;;18.00;99.90;;;;;;4590427;19;20007;-36
2022/09/29 04:59:52;;;;;;;15.85;12.35;;;17.90;99.90;;;;;;4590714;19;20030;-40
2022/09/29 05:01:24;;;;;;;13.77;12.38;;;18.00;99.90;;;;;;4591301;19;20022;-35
2022/09/29 05:02:56;;;;;;;13.15;11.73;;;17.90;99.90;;;;;;4590085;19;20476;-39
2022/09/29 05:04:27;;;;;;;15.20;12.45;;;17.90;99.90;;;;;;4589848;19;20401;-34
2022/09/29 05:05:58;;;;;;;14.73;13.05;;;17.90;99.90;;;;;;4590298;19;20015;-36
2022/09/29 05:07:30;;;;;;;14.18;12.65;;;17.90;99.90;;;;;;4590233;19;20011;-34
2022/09/29 05:09:01;;;;;;;14.85;13.35;;;17.90;99.90;;;;;;4590124;19;20007;-39
2022/09/29 05:10:32;;;;;;;14.93;13.38;;;17.90;99.90;;;;;;4589013;19;20018;-35
2022/09/29 05:12:03;;;;;;;14.18;12.68;;;17.90;99.90;;;;;;4590131;19;20011;-37
2022/09/29 05:13:35;;;;;;;15.48;13.88;;;18.00;99.90;;;;;;4589569;19;20081;-36
2022/09/29 05:15:07;;;;;;;14.82;13.27;;;18.00;99.90;;;;;;4589160;19;20014;-36
2022/09/29 05:16:38;;;;;;;13.85;12.52;;;18.00;99.90;;;;;;4588652;19;20040;-38
2022/09/29 05:18:09;;;;;;;14.27;12.93;;;18.00;99.90;;;;;;4588761;19;20014;-37
2022/09/29 05:19:40;;;;;;;15.15;13.65;;;18.00;99.90;;;;;;4590041;19;20036;-37
2022/09/29 05:21:12;;;;;;;15.02;13.52;;;18.10;99.90;;;;;;4592913;19;20077;-37
2022/09/29 05:22:43;;;;;;;14.38;12.98;;;18.10;99.90;;;;;;4592857;19;20011;-40
2022/09/29 05:24:14;;;;;;;16.02;13.75;;;18.10;99.90;;;;;;4592846;19;20021;-35
2022/09/29 05:25:45;;;;;;;15.25;13.75;;;18.10;99.90;;;;;;4590630;19;20017;-39
2022/09/29 05:27:16;;;;;;;15.57;13.98;;;18.10;99.90;;;;;;4591231;19;20022;-41
2022/09/29 05:28:47;;;;;;;15.18;13.55;;;18.10;99.90;;;;;;4591247;19;20003;-35
2022/09/29 05:30:18;;;;;;;14.82;13.45;;;18.00;99.90;;;;;;4591219;19;20006;-35
2022/09/29 05:31:50;;;;;;;14.90;13.40;;;18.00;99.90;;;;;;4590405;19;20021;-35
2022/09/29 05:33:21;;;;;;;14.63;13.23;;;18.10;99.90;;;;;;4590141;19;20019;-36
2022/09/29 05:34:52;;;;;;;15.10;13.60;;;18.10;99.90;;;;;;4593331;19;20023;-35
2022/09/29 05:36:23;;;;;;;15.20;13.60;;;18.10;99.90;;;;;;4592210;19;20014;-38
2022/09/29 05:37:54;;;;;;;16.33;14.80;;;18.10;99.90;;;;;;4591139;19;20075;-39
2022/09/29 05:39:25;;;;;;;15.30;13.85;;;18.00;99.90;;;;;;4591231;19;20007;-37
2022/09/29 05:40:56;;;;;;;15.02;13.52;;;18.00;99.90;;;;;;4591419;19;20022;-41
2022/09/29 05:42:27;;;;;;;15.80;14.23;;;18.10;99.90;;;;;;4589856;19;20003;-41
2022/09/29 05:44:00;;;;;;;15.35;13.95;;;18.00;99.90;;;;;;4589484;19;20761;-36
2022/09/29 05:45:31;;;;;;;15.07;13.57;;;18.00;99.90;;;;;;4592079;19;20410;-41
2022/09/29 05:47:02;;;;;;;14.10;12.70;;;18.10;99.90;;;;;;4592368;19;20034;-38
2022/09/29 05:48:33;;;;;;;16.27;14.57;;;18.00;99.90;;;;;;4591715;19;20002;-38
2022/09/29 05:50:05;;;;;;;16.42;14.90;;;18.00;99.90;;;;;;4590502;19;20014;-37
2022/09/29 05:51:36;;;;;;;14.60;13.07;;;18.00;99.90;;;;;;4588620;19;20018;-39
2022/09/29 05:53:07;;;;;;;13.45;12.20;;;18.00;99.90;;;;;;4589321;19;20448;-38
2022/09/29 05:54:38;;;;;;;;;;;18.10;99.90;;;;;;4589759;19;20362;-38
2022/09/29 05:56:12;;;;;;;15.00;13.50;;;18.10;99.90;;;;;;4588539;19;19911;-40
2022/09/29 05:57:47;;;;;;;14.48;13.07;;;18.10;99.90;;;;;;4588929;19;20010;-40
2022/09/29 05:59:18;;;;;;;13.65;12.13;;;18.20;99.90;;;;;;4590202;19;20006;-37
2022/09/29 06:00:49;;;;;;;13.73;12.43;;;18.20;99.90;;;;;;4589465;19;20014;-37
2022/09/29 06:02:20;;;;;;;13.43;12.15;;;18.30;99.90;;;;;;4589870;19;20023;-38
2022/09/29 06:03:54;;;;;;;14.40;12.95;;;18.30;99.90;;;;;;4589628;19;20094;-35
2022/09/29 06:05:26;;;;;;;14.60;13.15;;;18.40;99.90;;;;;;4589585;19;20006;-39
2022/09/29 06:06:58;;;;;;;13.90;12.60;;;18.40;99.90;;;;;;4589211;19;20031;-40
2022/09/29 06:08:29;;;;;;;14.70;13.20;;;18.40;99.90;;;;;;4589421;19;20018;-41
2022/09/29 06:10:00;;;;;;;13.95;12.65;;;18.50;99.90;;;;;;4588873;19;20014;-36
2022/09/29 06:11:31;;;;;;;14.07;12.68;;;18.40;99.90;;;;;;4587883;19;20085;-40
2022/09/29 06:13:02;;;;;;;14.20;12.90;;;18.50;99.90;;;;;;4589150;19;20014;-40
2022/09/29 06:14:34;;;;;;;14.60;11.93;;;18.50;99.90;;;;;;4588902;19;20003;-35
2022/09/29 06:16:05;;;;;;;13.40;12.00;;;18.50;99.90;;;;;;4587889;19;20014;-38
2022/09/29 06:17:37;;;;;;;13.88;12.32;;;18.50;99.90;;;;;;4588989;19;20017;-36
2022/09/29 06:19:08;;;;;;;13.70;12.40;;;18.50;99.90;;;;;;4589311;19;20094;-40
2022/09/29 06:20:39;;;;;;;12.55;11.35;;;18.50;99.90;;;;;;4589149;19;20472;-40
2022/09/29 06:22:10;;;;;;;11.30;10.20;;;18.50;99.90;;;;;;4588807;19;20015;-38
2022/09/29 06:23:41;;;;;;;13.00;11.80;;;18.60;99.90;;;;;;4588837;19;20101;-35
2022/09/29 06:25:12;;;;;;;12.63;11.43;;;18.60;99.90;;;;;;4588840;19;20378;-34
2022/09/29 06:26:44;;;;;;;13.02;11.73;;;18.60;99.90;;;;;;4589165;19;20018;-39
2022/09/29 06:28:15;;;;;;;12.98;11.77;;;18.60;99.90;;;;;;4588519;19;20015;-37
2022/09/29 06:29:46;;;;;;;13.55;12.15;;;18.50;99.90;;;;;;4590491;19;20019;-35
2022/09/29 06:31:18;;;;;;;12.00;10.90;;;18.50;99.90;;;;;;4590695;19;20436;-35
2022/09/29 06:32:49;;;;;;;13.00;11.80;;;18.50;99.90;;;;;;4590774;19;20037;-36
2022/09/29 06:34:20;;;;;;;12.48;11.27;;;18.50;99.90;;;;;;4592722;19;20014;-39
2022/09/29 06:37:42;;;;;;;10.52;9.55;;;18.40;99.90;;;;;;4590667;19;20014;-35
2022/09/29 06:39:14;;;;;;;10.32;9.30;;;18.40;99.90;;;;;;4589624;19;20043;-34
2022/09/29 06:40:45;;;;;;;11.18;10.18;;;18.40;99.90;;;;;;4590101;19;20074;-36
2022/09/29 06:42:16;;;;;;;10.52;9.52;;;18.40;99.90;;;;;;4589564;19;20007;-39
2022/09/29 06:43:47;;;;;;;10.00;9.07;;;18.40;99.90;;;;;;4590833;19;20007;-39
2022/09/29 06:45:18;;;;;;;11.48;10.40;;;18.40;99.90;;;;;;4591320;19;20015;-38
2022/09/29 06:46:50;;;;;;;10.13;9.13;;;18.50;99.90;;;;;;4590348;19;20015;-38
2022/09/29 06:48:21;;;;;;;9.60;8.60;;;18.40;99.90;;;;;;4590722;19;20006;-35
2022/09/29 06:49:52;;;;;;;9.00;8.20;;;18.50;99.90;;;;;;4590984;19;20015;-39
2022/09/29 06:51:24;;;;;;;10.00;9.00;;;18.50;99.90;;;;;;4589796;19;20018;-39
2022/09/29 06:52:55;;;;;;;;;;;18.60;99.90;;;;;;4591302;19;20033;-38
2022/09/29 06:54:26;;;;;;;10.43;9.43;;;18.60;99.90;;;;;;4590740;19;19930;-37
2022/09/29 06:55:59;;;;;;;;;;;18.60;99.90;;;;;;4592078;19;19998;-37
2022/09/29 06:57:31;;;;;;;10.07;9.05;;;18.50;99.90;;;;;;4589961;19;19936;-39
2022/09/29 06:59:03;;;;;;;10.05;9.02;;;18.50;99.90;;;;;;4588312;19;20017;-36
2022/09/29 07:00:34;;;;;;;11.15;10.00;;;18.50;99.90;;;;;;4589331;19;20065;-42
2022/09/29 07:02:05;;;;;;;11.20;10.15;;;18.50;99.90;;;;;;4591220;19;20003;-36
2022/09/29 07:03:36;;;;;;;;;;;18.50;99.90;;;;;;4591211;19;20341;-38
2022/09/29 07:05:08;;;;;;;11.82;10.70;;;18.40;99.90;;;;;;4592026;19;19918;-35
2022/09/29 07:06:39;;;;;;;13.48;10.18;;;18.40;99.90;;;;;;4592139;19;20011;-37
2022/09/29 07:08:10;;;;;;;12.10;10.38;;;18.30;99.90;;;;;;4592736;19;20035;-34
2022/09/29 07:09:42;;;;;;;11.30;10.25;;;18.30;99.90;;;;;;4591406;19;20500;-37
2022/09/29 07:11:15;;;;;;;11.57;10.43;;;18.30;99.90;;;;;;4589274;19;20030;-38
2022/09/29 07:12:46;;;;;;;10.77;9.77;;;18.40;99.90;;;;;;4590877;19;20011;-35
2022/09/29 07:14:19;;;;;;;11.18;10.07;;;18.40;99.90;;;;;;4590096;19;20015;-35
2022/09/29 07:15:50;;;;;;;11.88;10.77;;;18.30;99.90;;;;;;4590000;19;20374;-38
2022/09/29 07:17:22;;;;;;;12.15;10.95;;;18.30;99.90;;;;;;4589528;19;20344;-40
2022/09/29 07:18:54;;;;;;;11.80;10.70;;;18.30;99.90;;;;;;4590441;19;20010;-39
2022/09/29 07:20:25;;;;;;;12.68;11.50;;;18.30;99.90;;;;;;4589729;19;20033;-36
2022/09/29 07:21:56;;;;;;;;;;;18.30;99.90;;;;;;4590807;19;20084;-34
2022/09/29 07:23:27;;;;;;;11.73;10.52;;;18.30;99.90;;;;;;4590324;19;20313;-41
2022/09/29 07:24:58;;;;;;;12.95;11.60;;;18.30;99.90;;;;;;4590962;19;20076;-37
2022/09/29 07:26:29;;;;;;;11.73;10.60;;;18.30;99.90;;;;;;4590612;19;20011;-35
2022/09/29 07:28:01;;;;;;;12.82;11.15;;;18.30;99.90;;;;;;4594910;19;20002;-36
2022/09/29 07:29:33;;;;;;;11.70;10.63;;;18.20;99.90;;;;;;4594854;19;20006;-37
2022/09/29 07:31:13;;;;;;;12.52;11.32;;;18.20;99.90;;;;;;4593910;19;20025;-35
2022/09/29 07:32:45;;;;;;;11.77;10.68;;;18.20;99.90;;;;;;4594451;19;20003;-41
2022/09/29 07:34:16;;;;;;;12.07;10.98;;;18.10;99.90;;;;;;4596143;19;20018;-37
2022/09/29 07:35:51;;;;;;;12.25;11.05;;;18.10;99.90;;;;;;4594673;19;20011;-35
2022/09/29 07:37:24;;;;;;;11.40;10.40;;;18.10;99.90;;;;;;4593700;19;20066;-37
2022/09/29 07:38:55;;;;;;;12.15;10.85;;;18.10;99.90;;;;;;4594077;19;20022;-38
2022/09/29 07:40:27;;;;;;;12.90;11.70;;;18.10;99.90;;;;;;4594352;19;20027;-36
2022/09/29 07:41:58;;;;;;;12.77;11.48;;;18.10;99.90;;;;;;4593394;19;20219;-38
2022/09/29 07:43:29;;;;;;;13.07;11.88;;;18.10;99.90;;;;;;4594220;19;20007;-34
2022/09/29 07:45:00;;;;;;;12.70;11.57;;;18.10;99.90;;;;;;4592744;19;20007;-39
2022/09/29 07:46:31;;;;;;;13.07;11.75;;;18.10;99.90;;;;;;4594035;19;20014;-35
2022/09/29 07:48:03;;;;;;;12.02;10.95;;;18.10;99.90;;;;;;4594045;19;20356;-33
2022/09/29 07:49:34;;;;;;;13.18;11.88;;;18.10;99.90;;;;;;4595381;19;20003;-38
2022/09/29 07:51:13;;;;;;;13.57;12.27;;;18.10;99.90;;;;;;4595084;19;20025;-37
2022/09/29 07:52:45;;;;;;;12.13;10.93;;;18.10;99.90;;;;;;4595018;19;20022;-36
2022/09/29 07:54:16;;;;;;;12.73;11.52;;;18.10;99.90;;;;;;4594120;19;20015;-37
2022/09/29 07:55:46;;;;;;;13.70;12.40;;;18.10;99.90;;;;;;4594029;19;20014;-40
2022/09/29 07:57:17;;;;;;;12.85;11.60;;;18.00;99.90;;;;;;4591996;19;20356;-42
2022/09/29 07:58:49;;;;;;;11.88;10.68;;;18.00;99.90;;;;;;4591695;19;20007;-38
2022/09/29 08:00:20;;;;;;;12.20;11.02;;;18.00;99.90;;;;;;4592428;19;20010;-36
2022/09/29 08:01:52;;;;;;;11.90;10.70;;;18.00;99.90;;;;;;4591377;19;20080;-35
2022/09/29 08:03:24;;;;;;;11.73;10.55;;;18.00;99.90;;;;;;4591329;19;20014;-40
2022/09/29 08:04:56;;;;;;;11.02;9.93;;;18.00;99.90;;;;;;4589558;19;20023;-36